DHK2506 EGNX-EGAA
Flight info
| Callsign | DHK2506 |
|---|---|
| Flight time | 0h 42m |
| Altitude | 24000 |
| Route | TNT Q4 VABKA UL8 BILVO UP6 TUPEM DCT REMSI DCT UVPOK M147 ROBOP M146 IPSET P6 BELZU |
| Aircraft | B77L/H-SDE1E2E3FGHIJ2J3J4J5M1RWXY/LB1D1 |
Departure
| Time | 2026-04-30 07:44 |
|---|---|
| Airport | East Midlands Airport (EGNX) |
Arrival
| Time | 2026-04-30 08:27 |
|---|---|
| Airport | Belfast International Airport (EGAA) |
| Time | Latitude | Longitude | Altitude | Speed | Heading |
|---|---|---|---|---|---|
| 2026-04-30 07:06 | 52.82746 | -1.35114 | 305 ft | 0 kts | 178° |
| 2026-04-30 07:33 | 52.82748 | -1.35114 | 305 ft | 3 kts | 178° |
| 2026-04-30 07:33 | 52.82775 | -1.35112 | 305 ft | 4 kts | 190° |
| 2026-04-30 07:34 | 52.82800 | -1.35100 | 305 ft | 4 kts | 210° |
| 2026-04-30 07:34 | 52.82819 | -1.35073 | 307 ft | 4 kts | 246° |
| 2026-04-30 07:34 | 52.82823 | -1.35052 | 305 ft | 1 kts | 268° |
| 2026-04-30 07:34 | 52.82823 | -1.35044 | 305 ft | 1 kts | 268° |
| 2026-04-30 07:38 | 52.82823 | -1.35051 | 305 ft | 2 kts | 268° |
| 2026-04-30 07:38 | 52.82823 | -1.35083 | 307 ft | 4 kts | 268° |
| 2026-04-30 07:39 | 52.82822 | -1.35139 | 306 ft | 6 kts | 268° |
| 2026-04-30 07:39 | 52.82825 | -1.35222 | 305 ft | 8 kts | 289° |
| 2026-04-30 07:39 | 52.82871 | -1.35244 | 308 ft | 8 kts | 27° |
| 2026-04-30 07:39 | 52.82892 | -1.35161 | 309 ft | 9 kts | 84° |
| 2026-04-30 07:40 | 52.82896 | -1.35045 | 309 ft | 11 kts | 86° |
| 2026-04-30 07:40 | 52.82903 | -1.34978 | 310 ft | 0 kts | 64° |
| 2026-04-30 07:41 | 52.82904 | -1.34977 | 309 ft | 1 kts | 63° |
| 2026-04-30 07:41 | 52.82913 | -1.34959 | 309 ft | 3 kts | 46° |
| 2026-04-30 07:42 | 52.82928 | -1.34946 | 310 ft | 1 kts | 15° |
| 2026-04-30 07:42 | 52.82942 | -1.34941 | 309 ft | 4 kts | 12° |
| 2026-04-30 07:42 | 52.82981 | -1.34928 | 311 ft | 8 kts | 11° |
| 2026-04-30 07:42 | 52.83044 | -1.34884 | 308 ft | 12 kts | 46° |
| 2026-04-30 07:43 | 52.83063 | -1.34727 | 309 ft | 16 kts | 85° |
| 2026-04-30 07:43 | 52.83065 | -1.34676 | 307 ft | 0 kts | 88° |
| 2026-04-30 07:44 | 52.83067 | -1.34591 | 306 ft | 26 kts | 88° |
| 2026-04-30 07:44 | 52.83085 | -1.33679 | 312 ft | 132 kts | 88° |
| 2026-04-30 07:44 | 52.83148 | -1.31688 | 625 ft | 197 kts | 84° |
| 2026-04-30 07:44 | 52.83348 | -1.29422 | 1721 ft | 193 kts | 79° |
| 2026-04-30 07:45 | 52.83561 | -1.27349 | 2874 ft | 174 kts | 83° |
| 2026-04-30 07:45 | 52.83679 | -1.25377 | 3637 ft | 172 kts | 90° |
| 2026-04-30 07:45 | 52.83644 | -1.23392 | 4197 ft | 177 kts | 101° |
| 2026-04-30 07:45 | 52.83358 | -1.21327 | 4636 ft | 192 kts | 111° |
| 2026-04-30 07:46 | 52.82750 | -1.19261 | 5054 ft | 209 kts | 129° |
| 2026-04-30 07:46 | 52.81770 | -1.17324 | 5291 ft | 230 kts | 117° |
| 2026-04-30 07:46 | 52.81546 | -1.14651 | 5869 ft | 250 kts | 82° |
| 2026-04-30 07:46 | 52.82364 | -1.12036 | 6010 ft | 272 kts | 49° |
| 2026-04-30 07:47 | 52.84092 | -1.10631 | 6696 ft | 290 kts | 12° |
| 2026-04-30 07:47 | 52.86118 | -1.10977 | 7602 ft | 301 kts | 342° |
| 2026-04-30 07:47 | 52.88037 | -1.12423 | 8330 ft | 306 kts | 338° |
| 2026-04-30 07:47 | 52.90025 | -1.13825 | 9065 ft | 313 kts | 339° |
| 2026-04-30 07:48 | 52.91870 | -1.15717 | 9839 ft | 317 kts | 314° |
| 2026-04-30 07:48 | 52.93037 | -1.18815 | 10504 ft | 322 kts | 290° |
| 2026-04-30 07:48 | 52.93800 | -1.22452 | 10771 ft | 348 kts | 285° |
| 2026-04-30 07:48 | 52.94570 | -1.26419 | 10981 ft | 375 kts | 287° |
| 2026-04-30 07:49 | 52.95483 | -1.30616 | 11339 ft | 396 kts | 289° |
| 2026-04-30 07:49 | 52.96536 | -1.34915 | 12091 ft | 406 kts | 291° |
| 2026-04-30 07:49 | 52.97678 | -1.39235 | 13014 ft | 411 kts | 293° |
| 2026-04-30 07:49 | 52.98870 | -1.43560 | 13968 ft | 414 kts | 293° |
| 2026-04-30 07:50 | 53.00090 | -1.47927 | 14826 ft | 420 kts | 293° |
| 2026-04-30 07:50 | 53.01333 | -1.52356 | 15649 ft | 425 kts | 294° |
| 2026-04-30 07:50 | 53.02586 | -1.56842 | 16478 ft | 430 kts | 293° |
| 2026-04-30 07:50 | 53.03845 | -1.61376 | 17280 ft | 435 kts | 293° |
| 2026-04-30 07:51 | 53.05100 | -1.65978 | 18047 ft | 439 kts | 291° |
| 2026-04-30 07:51 | 53.06129 | -1.70782 | 18784 ft | 443 kts | 284° |
| 2026-04-30 07:51 | 53.06921 | -1.75745 | 19536 ft | 446 kts | 283° |
| 2026-04-30 07:51 | 53.07734 | -1.80740 | 20266 ft | 450 kts | 283° |
| 2026-04-30 07:52 | 53.08563 | -1.85699 | 20977 ft | 453 kts | 284° |
| 2026-04-30 07:52 | 53.09431 | -1.90824 | 21678 ft | 456 kts | 284° |
| 2026-04-30 07:52 | 53.10282 | -1.95848 | 22345 ft | 460 kts | 284° |
| 2026-04-30 07:52 | 53.11149 | -2.01004 | 23030 ft | 463 kts | 284° |
| 2026-04-30 07:53 | 53.12018 | -2.06181 | 23646 ft | 466 kts | 283° |
| 2026-04-30 07:53 | 53.12891 | -2.11410 | 24196 ft | 471 kts | 283° |
| 2026-04-30 07:53 | 53.13778 | -2.16685 | 24264 ft | 475 kts | 285° |
| 2026-04-30 07:53 | 53.14862 | -2.21869 | 24271 ft | 474 kts | 290° |
| 2026-04-30 07:54 | 53.16264 | -2.26840 | 24274 ft | 473 kts | 295° |
| 2026-04-30 07:54 | 53.17760 | -2.31720 | 24281 ft | 474 kts | 296° |
| 2026-04-30 07:54 | 53.19257 | -2.36619 | 24288 ft | 474 kts | 295° |
| 2026-04-30 07:54 | 53.20740 | -2.41529 | 24293 ft | 475 kts | 295° |
| 2026-04-30 07:55 | 53.22213 | -2.46467 | 24295 ft | 475 kts | 295° |
| 2026-04-30 07:55 | 53.23677 | -2.51410 | 24297 ft | 476 kts | 295° |
| 2026-04-30 07:55 | 53.25138 | -2.56366 | 24292 ft | 476 kts | 295° |
| 2026-04-30 07:55 | 53.26598 | -2.61325 | 24297 ft | 476 kts | 295° |
| 2026-04-30 07:56 | 53.28064 | -2.66276 | 24305 ft | 475 kts | 296° |
| 2026-04-30 07:56 | 53.29844 | -2.70928 | 24285 ft | 477 kts | 308° |
| 2026-04-30 07:56 | 53.32128 | -2.74961 | 24303 ft | 478 kts | 318° |
| 2026-04-30 07:56 | 53.34772 | -2.78319 | 24297 ft | 478 kts | 329° |
| 2026-04-30 07:57 | 53.37674 | -2.81037 | 24302 ft | 478 kts | 332° |
| 2026-04-30 07:57 | 53.40601 | -2.83704 | 24298 ft | 479 kts | 332° |
| 2026-04-30 07:57 | 53.43505 | -2.86427 | 24294 ft | 479 kts | 330° |
| 2026-04-30 07:57 | 53.46395 | -2.89212 | 24294 ft | 480 kts | 330° |
| 2026-04-30 07:58 | 53.49259 | -2.92099 | 24283 ft | 480 kts | 328° |
| 2026-04-30 07:58 | 53.52053 | -2.95163 | 24290 ft | 480 kts | 326° |
| 2026-04-30 07:58 | 53.54827 | -2.98288 | 24296 ft | 480 kts | 326° |
| 2026-04-30 07:58 | 53.57595 | -3.01381 | 24295 ft | 480 kts | 327° |
| 2026-04-30 07:59 | 53.60388 | -3.04475 | 24293 ft | 480 kts | 327° |
| 2026-04-30 07:59 | 53.63180 | -3.07564 | 24293 ft | 480 kts | 327° |
| 2026-04-30 07:59 | 53.65968 | -3.10655 | 24297 ft | 480 kts | 327° |
| 2026-04-30 08:00 | 53.71083 | -3.16741 | 24276 ft | 480 kts | 318° |
| 2026-04-30 08:00 | 53.73079 | -3.20012 | 24283 ft | 479 kts | 312° |
| 2026-04-30 08:00 | 53.74787 | -3.23375 | 24288 ft | 479 kts | 307° |
| 2026-04-30 08:00 | 53.76310 | -3.27063 | 24286 ft | 478 kts | 300° |
| 2026-04-30 08:01 | 53.77780 | -3.31257 | 24315 ft | 477 kts | 298° |
| 2026-04-30 08:01 | 53.79464 | -3.36096 | 24308 ft | 478 kts | 299° |
| 2026-04-30 08:01 | 53.81166 | -3.40898 | 24291 ft | 479 kts | 300° |
| 2026-04-30 08:01 | 53.82902 | -3.45724 | 24294 ft | 480 kts | 300° |
| 2026-04-30 08:02 | 53.86370 | -3.55384 | 24287 ft | 480 kts | 299° |
| 2026-04-30 08:02 | 53.88093 | -3.60233 | 24283 ft | 481 kts | 299° |
| 2026-04-30 08:03 | 53.91515 | -3.69891 | 24281 ft | 481 kts | 299° |
| 2026-04-30 08:03 | 53.94788 | -3.79847 | 24264 ft | 478 kts | 291° |
| 2026-04-30 08:03 | 53.95926 | -3.85052 | 24275 ft | 476 kts | 285° |
| 2026-04-30 08:04 | 53.96771 | -3.90472 | 24277 ft | 473 kts | 278° |
| 2026-04-30 08:04 | 53.97270 | -3.95974 | 24279 ft | 471 kts | 274° |
| 2026-04-30 08:04 | 53.97707 | -4.01504 | 24273 ft | 472 kts | 275° |
| 2026-04-30 08:04 | 53.98170 | -4.07015 | 24269 ft | 472 kts | 275° |
| 2026-04-30 08:05 | 53.98659 | -4.12535 | 24271 ft | 472 kts | 276° |
| 2026-04-30 08:05 | 53.99414 | -4.17970 | 24262 ft | 476 kts | 285° |
| 2026-04-30 08:05 | 54.00639 | -4.23212 | 24271 ft | 478 kts | 293° |
| 2026-04-30 08:05 | 54.02236 | -4.28181 | 24267 ft | 480 kts | 302° |
| 2026-04-30 08:06 | 54.04188 | -4.32798 | 24267 ft | 481 kts | 305° |
| 2026-04-30 08:06 | 54.06185 | -4.37363 | 24267 ft | 481 kts | 304° |
| 2026-04-30 08:06 | 54.08140 | -4.41970 | 24268 ft | 480 kts | 304° |
| 2026-04-30 08:06 | 54.10065 | -4.46621 | 24267 ft | 480 kts | 303° |
| 2026-04-30 08:07 | 54.11972 | -4.51299 | 24268 ft | 480 kts | 303° |
| 2026-04-30 08:07 | 54.13877 | -4.55985 | 24272 ft | 481 kts | 303° |
| 2026-04-30 08:07 | 54.15782 | -4.60663 | 24270 ft | 481 kts | 303° |
| 2026-04-30 08:07 | 54.17673 | -4.65301 | 24184 ft | 469 kts | 303° |
| 2026-04-30 08:08 | 54.19525 | -4.69836 | 23656 ft | 465 kts | 303° |
| 2026-04-30 08:08 | 54.21365 | -4.74339 | 23187 ft | 459 kts | 303° |
| 2026-04-30 08:08 | 54.23180 | -4.78790 | 22709 ft | 454 kts | 303° |
| 2026-04-30 08:08 | 54.24982 | -4.83216 | 22241 ft | 450 kts | 302° |
| 2026-04-30 08:09 | 54.26757 | -4.87588 | 21780 ft | 445 kts | 302° |
| 2026-04-30 08:09 | 54.28516 | -4.91929 | 21319 ft | 441 kts | 302° |
| 2026-04-30 08:09 | 54.30253 | -4.96222 | 20870 ft | 437 kts | 302° |
| 2026-04-30 08:09 | 54.31971 | -5.00475 | 20413 ft | 433 kts | 302° |
| 2026-04-30 08:10 | 54.33678 | -5.04709 | 19968 ft | 430 kts | 302° |
| 2026-04-30 08:10 | 54.35366 | -5.08906 | 19526 ft | 426 kts | 302° |
| 2026-04-30 08:10 | 54.37038 | -5.13071 | 19054 ft | 422 kts | 302° |
| 2026-04-30 08:10 | 54.38696 | -5.17208 | 18624 ft | 419 kts | 302° |
| 2026-04-30 08:11 | 54.40317 | -5.21258 | 18201 ft | 415 kts | 302° |
| 2026-04-30 08:11 | 54.41946 | -5.25331 | 17749 ft | 412 kts | 302° |
| 2026-04-30 08:11 | 54.43559 | -5.29372 | 17313 ft | 409 kts | 302° |
| 2026-04-30 08:11 | 54.45198 | -5.33328 | 16861 ft | 406 kts | 306° |
| 2026-04-30 08:12 | 54.47066 | -5.36970 | 16422 ft | 405 kts | 313° |
| 2026-04-30 08:12 | 54.49044 | -5.40389 | 15987 ft | 400 kts | 313° |
| 2026-04-30 08:12 | 54.50834 | -5.43992 | 15529 ft | 394 kts | 302° |
| 2026-04-30 08:12 | 54.52212 | -5.48034 | 15103 ft | 388 kts | 293° |
| 2026-04-30 08:13 | 54.53210 | -5.52280 | 14884 ft | 376 kts | 284° |
| 2026-04-30 08:13 | 54.53878 | -5.56530 | 14802 ft | 361 kts | 278° |
| 2026-04-30 08:13 | 54.54299 | -5.60687 | 14709 ft | 345 kts | 271° |
| 2026-04-30 08:13 | 54.54509 | -5.64709 | 14608 ft | 331 kts | 270° |
| 2026-04-30 08:14 | 54.54686 | -5.68603 | 14452 ft | 321 kts | 269° |
| 2026-04-30 08:14 | 54.54851 | -5.72402 | 14208 ft | 315 kts | 269° |
| 2026-04-30 08:14 | 54.55013 | -5.76146 | 13865 ft | 312 kts | 269° |
| 2026-04-30 08:14 | 54.55173 | -5.79870 | 13450 ft | 312 kts | 269° |
| 2026-04-30 08:15 | 54.55337 | -5.83594 | 13060 ft | 311 kts | 269° |
| 2026-04-30 08:15 | 54.55503 | -5.87317 | 12663 ft | 311 kts | 269° |
| 2026-04-30 08:15 | 54.55666 | -5.91022 | 12297 ft | 310 kts | 269° |
| 2026-04-30 08:15 | 54.55827 | -5.94706 | 11919 ft | 308 kts | 269° |
| 2026-04-30 08:16 | 54.55992 | -5.98378 | 11533 ft | 307 kts | 269° |
| 2026-04-30 08:16 | 54.56154 | -6.02023 | 11173 ft | 305 kts | 269° |
| 2026-04-30 08:16 | 54.56313 | -6.05650 | 10853 ft | 302 kts | 269° |
| 2026-04-30 08:16 | 54.56469 | -6.09239 | 10521 ft | 299 kts | 270° |
| 2026-04-30 08:17 | 54.56622 | -6.12788 | 10166 ft | 296 kts | 270° |
| 2026-04-30 08:17 | 54.56773 | -6.16321 | 9785 ft | 295 kts | 270° |
| 2026-04-30 08:17 | 54.56925 | -6.19828 | 9426 ft | 292 kts | 272° |
| 2026-04-30 08:17 | 54.57480 | -6.23174 | 8979 ft | 294 kts | 300° |
| 2026-04-30 08:18 | 54.58841 | -6.25643 | 8791 ft | 284 kts | 329° |
| 2026-04-30 08:18 | 54.60621 | -6.26805 | 8673 ft | 266 kts | 357° |
| 2026-04-30 08:18 | 54.62354 | -6.26302 | 8440 ft | 241 kts | 38° |
| 2026-04-30 08:18 | 54.63514 | -6.24459 | 8080 ft | 226 kts | 59° |
| 2026-04-30 08:19 | 54.64355 | -6.22211 | 7677 ft | 220 kts | 68° |
| 2026-04-30 08:19 | 54.65044 | -6.19868 | 7286 ft | 218 kts | 71° |
| 2026-04-30 08:19 | 54.65703 | -6.17509 | 6824 ft | 221 kts | 70° |
| 2026-04-30 08:19 | 54.66451 | -6.15087 | 6086 ft | 237 kts | 59° |
| 2026-04-30 08:20 | 54.67845 | -6.13368 | 5328 ft | 264 kts | 17° |
| 2026-04-30 08:20 | 54.69691 | -6.13523 | 4813 ft | 274 kts | 340° |
| 2026-04-30 08:20 | 54.71288 | -6.15325 | 4264 ft | 278 kts | 313° |
| 2026-04-30 08:20 | 54.72291 | -6.18122 | 3740 ft | 275 kts | 282° |
| 2026-04-30 08:21 | 54.72232 | -6.21302 | 3301 ft | 259 kts | 242° |
| 2026-04-30 08:21 | 54.71198 | -6.23538 | 3163 ft | 222 kts | 206° |
| 2026-04-30 08:21 | 54.69907 | -6.24563 | 2760 ft | 199 kts | 198° |
| 2026-04-30 08:21 | 54.68786 | -6.26213 | 1854 ft | 227 kts | 236° |
| 2026-04-30 08:22 | 54.68591 | -6.28746 | 1746 ft | 209 kts | 283° |
| 2026-04-30 08:22 | 54.69030 | -6.30194 | 1507 ft | 198 kts | 321° |
| 2026-04-30 08:22 | 54.70191 | -6.30888 | 1151 ft | 170 kts | 16° |
| 2026-04-30 08:22 | 54.70979 | -6.29733 | 680 ft | 143 kts | 78° |
| 2026-04-30 08:23 | 54.70645 | -6.28269 | 558 ft | 139 kts | 149° |
| 2026-04-30 08:23 | 54.69660 | -6.28209 | 495 ft | 148 kts | 186° |
| 2026-04-30 08:23 | 54.68651 | -6.28675 | 678 ft | 153 kts | 195° |
| 2026-04-30 08:23 | 54.67661 | -6.29347 | 692 ft | 150 kts | 195° |
| 2026-04-30 08:24 | 54.66647 | -6.29778 | 847 ft | 151 kts | 185° |
| 2026-04-30 08:24 | 54.65586 | -6.30036 | 918 ft | 153 kts | 184° |
| 2026-04-30 08:24 | 54.64550 | -6.30282 | 1032 ft | 149 kts | 181° |
| 2026-04-30 08:24 | 54.63531 | -6.30090 | 1065 ft | 146 kts | 152° |
| 2026-04-30 08:25 | 54.62855 | -6.28913 | 1115 ft | 139 kts | 109° |
| 2026-04-30 08:25 | 54.62927 | -6.27292 | 1133 ft | 144 kts | 61° |
| 2026-04-30 08:25 | 54.63667 | -6.26089 | 848 ft | 149 kts | 38° |
| 2026-04-30 08:25 | 54.64504 | -6.25084 | 573 ft | 143 kts | 41° |
| 2026-04-30 08:26 | 54.65132 | -6.23827 | 361 ft | 139 kts | 64° |
| 2026-04-30 08:26 | 54.65540 | -6.22320 | 277 ft | 132 kts | 64° |
| 2026-04-30 08:26 | 54.65856 | -6.21164 | 276 ft | 80 kts | 65° |
| 2026-04-30 08:26 | 54.66036 | -6.20498 | 276 ft | 54 kts | 65° |
| 2026-04-30 08:27 | 54.66188 | -6.19933 | 276 ft | 50 kts | 65° |
| 2026-04-30 08:27 | 54.66359 | -6.19718 | 281 ft | 27 kts | 322° |
| 2026-04-30 08:27 | 54.66359 | -6.19996 | 276 ft | 20 kts | 246° |
| 2026-04-30 08:27 | 54.66303 | -6.20216 | 278 ft | 20 kts | 246° |
| 2026-04-30 08:28 | 54.66245 | -6.20434 | 278 ft | 20 kts | 245° |
| 2026-04-30 08:28 | 54.66185 | -6.20651 | 276 ft | 20 kts | 244° |
| 2026-04-30 08:28 | 54.66125 | -6.20867 | 276 ft | 20 kts | 244° |
| 2026-04-30 08:28 | 54.66075 | -6.21057 | 276 ft | 20 kts | 245° |
| 2026-04-30 08:29 | 54.66017 | -6.21274 | 278 ft | 20 kts | 245° |
| 2026-04-30 08:29 | 54.65958 | -6.21491 | 276 ft | 20 kts | 244° |
| 2026-04-30 08:29 | 54.65898 | -6.21707 | 276 ft | 20 kts | 244° |
| 2026-04-30 08:29 | 54.65845 | -6.21927 | 276 ft | 20 kts | 268° |
| 2026-04-30 08:30 | 54.65936 | -6.22094 | 276 ft | 20 kts | 308° |
| 2026-04-30 08:30 | 54.66005 | -6.22191 | 276 ft | 0 kts | 336° |